Time;durP1;ratioP1;P1;durP2;ratioP2;P2;SDS_P1;SDS_P2;PMS_P1;PMS_P2;Temp;Humidity;BMP_temperature;BMP_pressure;BME280_temperature;BME280_humidity;BME280_pressure;Samples;Min_cycle;Max_cycle;Signal;HPM_P1;HPM_P2
2022/09/03 00:01:22;;;;;;;6.50;2.60;;;18.70;12.50;;;;;;5013083;28;20420;-73
2022/09/03 00:03:54;;;;;;;3.42;1.70;;;18.70;12.60;;;;;;5013424;28;20384;-73
2022/09/03 00:06:20;;;;;;;3.80;2.20;;;18.70;12.70;;;;;;5013017;28;20877;-73
2022/09/03 00:08:53;;;;;;;4.47;2.23;;;18.50;13.00;;;;;;5013086;28;20389;-73
2022/09/03 00:11:24;;;;;;;3.60;2.33;;;18.60;13.10;;;;;;5012681;28;20389;-71
2022/09/03 00:14:04;;;;;;;3.78;1.98;;;18.60;13.00;;;;;;5012538;28;20384;-72
2022/09/03 00:16:43;;;;;;;2.50;2.07;;;18.60;13.00;;;;;;5012853;28;20376;-71
2022/09/03 00:19:11;;;;;;;2.83;2.10;;;18.80;12.70;;;;;;5012515;28;20385;-72
2022/09/03 00:21:51;;;;;;;3.28;1.85;;;18.70;12.90;;;;;;5012570;28;20389;-71
2022/09/03 00:24:19;;;;;;;3.30;1.80;;;18.70;12.90;;;;;;5012806;28;20377;-72
2022/09/03 00:26:54;;;;;;;6.95;2.47;;;18.70;12.90;;;;;;5012784;28;20396;-72
2022/09/03 00:29:23;;;;;;;3.10;2.20;;;18.60;13.60;;;;;;5012596;28;20395;-71
2022/09/03 00:31:53;;;;;;;3.37;1.90;;;18.50;13.30;;;;;;5012170;28;20817;-72
2022/09/03 00:34:29;;;;;;;2.42;1.80;;;18.50;13.40;;;;;;5012400;28;20407;-73
2022/09/03 00:36:55;;;;;;;3.20;1.77;;;18.50;13.50;;;;;;5012701;28;20377;-73
2022/09/03 00:39:23;;;;;;;2.53;1.90;;;18.40;13.50;;;;;;5012429;28;20423;-72
2022/09/03 00:42:06;;;;;;;3.20;1.90;;;18.40;13.70;;;;;;5012277;28;20840;-72
2022/09/03 00:44:37;;;;;;;3.83;1.90;;;18.40;13.60;;;;;;5012492;28;20811;-72
2022/09/03 00:47:17;;;;;;;4.55;2.15;;;18.50;13.60;;;;;;5011237;28;20417;-72
2022/09/03 00:49:59;;;;;;;2.15;1.80;;;18.50;13.50;;;;;;5012291;28;20829;-71
2022/09/03 00:52:54;;;;;;;2.00;1.80;;;18.60;13.30;;;;;;5011505;28;20385;-71
2022/09/03 00:55:33;;;;;;;3.10;1.70;;;18.70;13.10;;;;;;5012131;28;20384;-73
2022/09/03 00:58:24;;;;;;;7.00;2.15;;;18.60;13.20;;;;;;5015849;28;20408;-72
2022/09/03 01:00:51;;;;;;;5.32;2.30;;;18.60;13.20;;;;;;5015098;28;20411;-72
2022/09/03 01:03:53;;;;;;;3.60;2.00;;;18.50;13.50;;;;;;5012463;28;20389;-72
2022/09/03 01:06:31;;;;;;;3.45;2.00;;;18.50;13.50;;;;;;4950831;28;20533;-72
2022/09/03 01:09:10;;;;;;;3.40;2.00;;;18.50;13.50;;;;;;4984414;28;20747;-72
2022/09/03 01:11:58;;;;;;;3.50;1.65;;;18.60;13.60;;;;;;5011237;28;20388;-72
2022/09/03 01:14:39;;;;;;;3.97;2.10;;;18.40;13.70;;;;;;5011289;28;20428;-72
2022/09/03 01:17:20;;;;;;;2.00;1.80;;;18.50;13.80;;;;;;5011413;28;20381;-72
2022/09/03 01:20:07;;;;;;;5.70;1.90;;;18.50;13.50;;;;;;5011132;28;20467;-72
2022/09/03 01:22:41;;;;;;;4.38;1.70;;;18.50;13.70;;;;;;5011044;28;20411;-72
2022/09/03 01:25:16;;;;;;;5.80;1.90;;;18.40;13.90;;;;;;5011276;28;20411;-72
2022/09/03 01:27:45;;;;;;;3.17;1.70;;;18.40;13.60;;;;;;5010988;28;20957;-72
2022/09/03 01:30:17;;;;;;;3.50;1.80;;;18.40;13.70;;;;;;5009776;28;20392;-71
2022/09/03 01:33:20;;;;;;;3.83;1.83;;;18.40;14.20;;;;;;5011003;28;20420;-71
2022/09/03 01:35:49;;;;;;;5.95;2.00;;;18.40;13.80;;;;;;5011045;28;20738;-71
2022/09/03 01:38:40;;;;;;;5.80;1.80;;;18.40;13.80;;;;;;5011038;28;20401;-72
2022/09/03 01:45:11;;;;;;;2.75;1.70;;;18.40;13.70;;;;;;5011622;28;20927;-73
2022/09/03 01:47:55;;;;;;;3.50;1.67;;;18.40;13.50;;;;;;5003154;28;20405;-72
2022/09/03 01:50:38;;;;;;;2.38;1.70;;;18.50;13.60;;;;;;5012580;28;20393;-73
2022/09/03 01:53:25;;;;;;;4.13;1.92;;;18.50;13.60;;;;;;5012853;28;20395;-73
2022/09/03 01:56:44;;;;;;;4.20;2.00;;;18.50;13.60;;;;;;5011758;28;20388;-73
2022/09/03 01:59:30;;;;;;;2.85;1.88;;;18.40;13.70;;;;;;4950279;28;20398;-73
2022/09/03 02:02:06;;;;;;;4.70;1.90;;;18.30;14.10;;;;;;5006989;28;20420;-73
2022/09/03 02:04:31;;;;;;;1.80;1.40;;;18.20;14.10;;;;;;5015070;28;20761;-72
2022/09/03 02:07:00;;;;;;;3.30;1.60;;;18.10;14.30;;;;;;5013543;28;20389;-73
2022/09/03 02:09:25;;;;;;;2.47;1.70;;;18.10;14.70;;;;;;5014708;28;20407;-71
2022/09/03 02:12:07;;;;;;;2.97;1.50;;;18.00;14.80;;;;;;5014657;28;20480;-71
2022/09/03 02:14:34;;;;;;;2.10;1.75;;;18.00;14.70;;;;;;5014683;28;20412;-72
2022/09/03 02:17:01;;;;;;;5.32;1.80;;;18.00;14.90;;;;;;5014476;28;20397;-72
2022/09/03 02:19:29;;;;;;;4.30;2.10;;;18.00;14.90;;;;;;5014958;28;20412;-71
2022/09/03 02:21:56;;;;;;;5.13;3.42;;;17.90;15.20;;;;;;5014850;28;20388;-71
2022/09/03 02:24:23;;;;;;;5.93;3.80;;;17.90;15.20;;;;;;5015002;28;20746;-72
2022/09/03 02:26:48;;;;;;;5.10;2.35;;;17.90;15.00;;;;;;5014853;28;20873;-71
2022/09/03 02:29:16;;;;;;;2.10;1.90;;;17.80;15.20;;;;;;5014510;28;20386;-72
2022/09/03 02:31:43;;;;;;;2.70;2.47;;;17.90;15.20;;;;;;5014452;28;20396;-72
2022/09/03 02:34:08;;;;;;;6.95;3.05;;;17.80;15.40;;;;;;5014194;28;20387;-73
2022/09/03 02:36:38;;;;;;;4.22;2.35;;;17.80;15.60;;;;;;5014349;28;20381;-72
2022/09/03 02:39:04;;;;;;;3.92;2.20;;;17.70;15.70;;;;;;5014565;28;20407;-72
2022/09/03 02:41:30;;;;;;;5.57;1.80;;;17.70;15.80;;;;;;5014290;28;20467;-72
2022/09/03 02:44:22;;;;;;;3.93;2.53;;;17.70;16.30;;;;;;5014142;28;20385;-72
2022/09/03 02:47:00;;;;;;;5.93;2.80;;;17.60;16.10;;;;;;5014241;28;20903;-73
2022/09/03 02:49:27;;;;;;;4.30;2.10;;;17.60;16.20;;;;;;5014039;28;20781;-72
2022/09/03 02:51:59;;;;;;;3.00;2.42;;;17.50;16.30;;;;;;5013608;28;20479;-73
2022/09/03 02:54:25;;;;;;;5.95;3.10;;;17.50;17.10;;;;;;5014016;28;20881;-72
2022/09/03 02:56:51;;;;;;;3.05;1.73;;;17.50;17.20;;;;;;5013832;28;20477;-72
2022/09/03 02:59:16;;;;;;;4.63;1.90;;;17.60;16.40;;;;;;5013604;28;20390;-72
2022/09/03 03:01:42;;;;;;;3.90;2.10;;;17.60;16.40;;;;;;5013918;28;20420;-72
2022/09/03 03:04:08;;;;;;;4.43;1.88;;;17.50;16.60;;;;;;5013574;28;20388;-72
2022/09/03 03:06:33;;;;;;;2.80;2.50;;;17.50;16.80;;;;;;5013574;28;20408;-71
2022/09/03 03:09:00;;;;;;;3.30;1.80;;;17.40;17.00;;;;;;5012202;28;20391;-71
2022/09/03 03:11:26;;;;;;;2.80;2.00;;;17.30;17.70;;;;;;5013471;28;20458;-72
2022/09/03 03:13:51;;;;;;;7.00;2.10;;;17.30;17.20;;;;;;5012668;28;20475;-72
2022/09/03 03:16:17;;;;;;;4.47;2.50;;;17.40;17.10;;;;;;5013374;28;20381;-72
2022/09/03 03:18:45;;;;;;;3.55;2.00;;;17.30;17.40;;;;;;5015294;28;20393;-72
2022/09/03 03:21:15;;;;;;;3.60;2.63;;;17.30;17.30;;;;;;5016599;28;20396;-72
2022/09/03 03:23:40;;;;;;;6.40;2.20;;;17.30;17.40;;;;;;5019066;28;20468;-71
2022/09/03 03:26:09;;;;;;;2.93;2.50;;;17.30;17.40;;;;;;5019652;28;20738;-71
2022/09/03 03:28:35;;;;;;;5.72;2.35;;;17.20;17.60;;;;;;5017963;28;20801;-73
2022/09/03 03:31:23;;;;;;;3.40;2.40;;;17.20;17.50;;;;;;5014984;28;20393;-72
2022/09/03 03:33:53;;;;;;;3.90;2.20;;;17.30;17.50;;;;;;5013393;28;20388;-71
2022/09/03 03:36:20;;;;;;;2.10;1.90;;;17.30;17.40;;;;;;5013047;28;20423;-72
2022/09/03 03:38:45;;;;;;;3.58;2.40;;;17.30;17.50;;;;;;5013133;28;20388;-72
2022/09/03 03:41:18;;;;;;;6.10;2.80;;;17.20;17.80;;;;;;5011492;28;20428;-72
2022/09/03 03:43:44;;;;;;;6.30;2.63;;;17.10;18.10;;;;;;5026216;23;20447;-72
2022/09/03 03:46:10;;;;;;;2.00;1.80;;;17.10;18.00;;;;;;5013001;28;20877;-72
2022/09/03 03:48:37;;;;;;;4.00;2.05;;;17.10;18.20;;;;;;5013029;28;20715;-71
2022/09/03 03:51:06;;;;;;;2.60;2.00;;;17.00;18.20;;;;;;5013299;28;20373;-71
2022/09/03 03:53:33;;;;;;;5.03;2.15;;;17.10;18.10;;;;;;5012981;28;20389;-71
2022/09/03 03:56:01;;;;;;;3.47;2.40;;;17.20;18.10;;;;;;5013310;28;20460;-72
2022/09/03 03:58:31;;;;;;;8.45;3.15;;;17.20;17.90;;;;;;5013275;28;20769;-71
2022/09/03 04:01:07;;;;;;;4.65;2.30;;;17.10;18.40;;;;;;5012794;28;20415;-72
2022/09/03 04:03:34;;;;;;;5.35;2.10;;;17.10;18.20;;;;;;5013602;28;20428;-72
2022/09/03 04:06:00;;;;;;;4.47;2.00;;;17.10;18.20;;;;;;5020318;28;20492;-72
2022/09/03 04:08:26;;;;;;;2.00;1.60;;;17.20;18.10;;;;;;5016048;28;20396;-72
2022/09/03 04:10:52;;;;;;;2.70;2.00;;;17.20;18.00;;;;;;5012231;28;20389;-71
2022/09/03 04:13:18;;;;;;;5.57;2.28;;;17.20;18.10;;;;;;5012842;28;20453;-71
2022/09/03 04:15:44;;;;;;;3.60;1.80;;;17.10;18.10;;;;;;5012930;28;20393;-70
2022/09/03 04:18:10;;;;;;;4.20;2.00;;;17.20;18.20;;;;;;5012600;28;20399;-72
2022/09/03 04:20:36;;;;;;;3.83;2.33;;;17.10;18.30;;;;;;5013140;28;20403;-73
2022/09/03 04:23:02;;;;;;;6.00;1.80;;;17.10;18.60;;;;;;5014193;28;20384;-73
2022/09/03 04:25:28;;;;;;;4.15;2.55;;;17.10;18.30;;;;;;5012876;28;20731;-72
2022/09/03 04:27:53;;;;;;;4.30;2.27;;;17.00;18.80;;;;;;5014926;28;20392;-72
2022/09/03 04:30:20;;;;;;;4.13;2.20;;;16.90;19.00;;;;;;5014849;28;20437;-71
2022/09/03 04:32:52;;;;;;;3.13;2.20;;;16.90;19.00;;;;;;5014676;28;20467;-72
2022/09/03 04:35:19;;;;;;;4.03;1.83;;;16.90;18.90;;;;;;5011883;28;20381;-72
2022/09/03 04:37:45;;;;;;;4.35;2.70;;;17.00;18.70;;;;;;5014638;28;20427;-72
2022/09/03 04:40:11;;;;;;;5.30;2.17;;;17.00;18.80;;;;;;5013996;28;20901;-71
2022/09/03 04:42:37;;;;;;;4.70;2.40;;;16.90;19.10;;;;;;5013186;28;20381;-71
2022/09/03 04:45:03;;;;;;;2.80;2.00;;;16.80;19.40;;;;;;5012712;28;20898;-71
2022/09/03 04:47:28;;;;;;;4.10;2.17;;;16.80;19.50;;;;;;5013085;28;20404;-71
2022/09/03 04:49:54;;;;;;;3.08;2.10;;;16.80;19.40;;;;;;5012790;28;20389;-72
2022/09/03 04:52:20;;;;;;;2.63;2.10;;;16.80;19.30;;;;;;5012402;28;20388;-72
2022/09/03 04:54:45;;;;;;;4.45;2.30;;;16.80;19.40;;;;;;5012682;28;20397;-72
2022/09/03 04:57:11;;;;;;;5.40;2.30;;;16.80;19.70;;;;;;5012133;28;20739;-71
2022/09/03 04:59:37;;;;;;;3.70;2.10;;;16.90;19.40;;;;;;5012353;28;20404;-71
2022/09/03 05:02:03;;;;;;;4.07;2.20;;;16.90;19.50;;;;;;5012168;28;20381;-71
2022/09/03 05:04:28;;;;;;;5.15;1.98;;;16.90;19.50;;;;;;5012160;28;20483;-71
2022/09/03 05:06:54;;;;;;;4.30;2.10;;;16.80;19.50;;;;;;5012161;28;20389;-71
2022/09/03 05:09:20;;;;;;;2.60;2.40;;;16.90;19.70;;;;;;5010620;28;20389;-70
2022/09/03 05:11:45;;;;;;;3.25;2.00;;;16.80;19.60;;;;;;5012054;28;20385;-72
2022/09/03 05:14:11;;;;;;;4.03;2.90;;;16.90;19.70;;;;;;5011937;28;20424;-72
2022/09/03 05:16:37;;;;;;;3.13;2.25;;;16.80;19.80;;;;;;5012628;28;20369;-72
2022/09/03 05:19:04;;;;;;;4.20;2.30;;;16.90;19.70;;;;;;5012392;28;20679;-71
2022/09/03 05:21:30;;;;;;;4.00;2.85;;;16.90;19.70;;;;;;5011771;28;20388;-71
2022/09/03 05:23:58;;;;;;;2.70;2.10;;;16.90;19.90;;;;;;5011521;28;20404;-72
2022/09/03 05:26:26;;;;;;;2.77;1.80;;;16.90;20.00;;;;;;5011814;28;20377;-72
2022/09/03 05:28:54;;;;;;;2.47;1.95;;;17.00;19.60;;;;;;5011392;28;20383;-70
2022/09/03 05:31:21;;;;;;;4.27;2.47;;;17.10;19.70;;;;;;5011942;28;20931;-72
2022/09/03 05:33:52;;;;;;;3.30;1.90;;;17.20;19.30;;;;;;5011944;28;20416;-72
2022/09/03 05:36:21;;;;;;;2.67;1.83;;;17.30;19.00;;;;;;5011696;28;20374;-71
2022/09/03 05:38:47;;;;;;;4.07;2.30;;;17.30;19.10;;;;;;5012043;28;20868;-71
2022/09/03 05:41:14;;;;;;;3.67;1.77;;;17.40;18.70;;;;;;5011609;28;20397;-70
2022/09/03 05:43:40;;;;;;;4.57;2.80;;;17.40;18.80;;;;;;5011447;28;20781;-71
2022/09/03 05:46:17;;;;;;;3.53;2.20;;;17.50;18.70;;;;;;5011492;28;20404;-73
2022/09/03 05:48:43;;;;;;;5.30;3.20;;;17.50;18.40;;;;;;5011885;28;20451;-72
2022/09/03 05:51:10;;;;;;;3.33;2.80;;;17.60;18.60;;;;;;5011895;28;20450;-72
2022/09/03 05:53:38;;;;;;;4.70;2.53;;;17.60;18.60;;;;;;5011453;28;20395;-72
2022/09/03 05:56:08;;;;;;;5.72;2.40;;;17.70;18.40;;;;;;5011389;28;20431;-71
2022/09/03 05:58:35;;;;;;;3.72;2.95;;;17.70;18.40;;;;;;5011357;28;20393;-71
2022/09/03 06:01:25;;;;;;;3.03;2.40;;;17.70;18.60;;;;;;5011289;28;20908;-72
2022/09/03 06:03:57;;;;;;;5.28;3.00;;;17.80;18.20;;;;;;5010614;28;20393;-72
2022/09/03 06:06:24;;;;;;;4.68;2.35;;;17.90;18.00;;;;;;5010446;28;20905;-72
2022/09/03 06:08:54;;;;;;;4.83;2.80;;;18.00;17.90;;;;;;5011452;28;20400;-72
2022/09/03 06:11:22;;;;;;;5.03;2.25;;;18.10;17.80;;;;;;5012127;28;20793;-72
2022/09/03 06:13:47;;;;;;;2.92;2.50;;;18.10;17.70;;;;;;5011674;28;20758;-70
2022/09/03 06:16:13;;;;;;;5.13;2.50;;;18.30;17.50;;;;;;5011684;28;20389;-72
2022/09/03 06:18:38;;;;;;;4.43;2.67;;;18.40;17.40;;;;;;5011858;28;20381;-72
2022/09/03 06:21:06;;;;;;;5.93;2.80;;;18.40;17.30;;;;;;5011269;28;20412;-72
2022/09/03 06:23:32;;;;;;;3.72;1.73;;;18.50;17.30;;;;;;5011461;28;20380;-72
2022/09/03 06:26:07;;;;;;;4.63;2.10;;;18.60;16.90;;;;;;5011607;28;20424;-71
2022/09/03 06:28:34;;;;;;;5.82;3.20;;;18.80;16.70;;;;;;5011458;28;20881;-72
2022/09/03 06:31:01;;;;;;;6.75;2.20;;;18.70;16.80;;;;;;5010103;28;20405;-72
2022/09/03 06:33:31;;;;;;;6.30;2.70;;;18.80;16.60;;;;;;5011669;28;20396;-71
2022/09/03 06:35:58;;;;;;;2.97;2.33;;;18.80;16.70;;;;;;5011292;28;20399;-72
2022/09/03 06:38:28;;;;;;;6.35;2.17;;;19.00;16.40;;;;;;5012238;28;20484;-72
2022/09/03 06:41:02;;;;;;;3.25;2.30;;;19.10;16.10;;;;;;5014675;28;20448;-72
2022/09/03 06:43:30;;;;;;;4.33;3.00;;;19.20;15.70;;;;;;5017255;28;20489;-72
2022/09/03 06:46:01;;;;;;;4.75;2.40;;;19.30;15.80;;;;;;5019330;28;20393;-72
2022/09/03 06:48:28;;;;;;;4.82;2.60;;;19.40;15.80;;;;;;5013106;28;20381;-72
2022/09/03 06:51:03;;;;;;;5.10;1.83;;;19.50;15.60;;;;;;5017546;28;20411;-72
2022/09/03 06:53:31;;;;;;;3.60;1.98;;;19.60;15.30;;;;;;5017539;28;20377;-71
2022/09/03 06:55:58;;;;;;;4.68;2.30;;;19.70;15.00;;;;;;5023043;28;20396;-71
2022/09/03 06:58:28;;;;;;;3.42;2.13;;;19.70;15.00;;;;;;5023511;28;20393;-71
2022/09/03 07:00:59;;;;;;;4.90;3.53;;;19.80;14.90;;;;;;5021341;28;20444;-71
2022/09/03 07:03:25;;;;;;;4.90;2.17;;;19.80;15.00;;;;;;5019565;28;20381;-71
2022/09/03 07:05:50;;;;;;;4.00;1.93;;;20.00;14.50;;;;;;5019260;28;20473;-72
2022/09/03 07:08:16;;;;;;;6.50;2.80;;;20.00;14.60;;;;;;5017526;28;20392;-71
2022/09/03 07:10:46;;;;;;;3.78;2.22;;;20.10;14.40;;;;;;5015375;28;20396;-72
2022/09/03 07:13:13;;;;;;;5.10;1.90;;;20.30;14.20;;;;;;5014685;28;20750;-71
2022/09/03 07:15:40;;;;;;;4.07;2.20;;;20.40;13.90;;;;;;5016781;28;20388;-72
2022/09/03 07:18:05;;;;;;;2.83;1.92;;;20.40;13.70;;;;;;5017001;28;20388;-71
2022/09/03 07:20:31;;;;;;;3.65;2.42;;;20.40;13.80;;;;;;5017394;28;20408;-73
2022/09/03 07:22:56;;;;;;;5.87;2.60;;;20.40;14.00;;;;;;5016917;28;20392;-70
2022/09/03 07:25:24;;;;;;;3.90;2.60;;;20.60;13.80;;;;;;5016912;28;20467;-72
2022/09/03 07:27:51;;;;;;;4.00;2.20;;;20.70;13.50;;;;;;5017181;28;20385;-73
2022/09/03 07:30:18;;;;;;;2.72;2.40;;;20.70;13.20;;;;;;5017123;28;20392;-73
2022/09/03 07:32:49;;;;;;;6.15;2.20;;;20.70;13.40;;;;;;5016837;28;20769;-72
2022/09/03 07:35:15;;;;;;;4.97;2.50;;;20.70;13.30;;;;;;5015272;28;20396;-70
2022/09/03 07:37:42;;;;;;;8.32;2.53;;;20.70;13.10;;;;;;5015096;28;20400;-72
2022/09/03 07:40:09;;;;;;;4.18;2.60;;;20.70;13.30;;;;;;5014905;28;20882;-71
2022/09/03 07:42:37;;;;;;;7.20;2.03;;;20.60;13.30;;;;;;5014805;28;20393;-73
2022/09/03 07:45:09;;;;;;;4.78;1.80;;;20.60;13.10;;;;;;5015498;28;20928;-72
2022/09/03 07:47:35;;;;;;;3.77;2.40;;;20.70;13.20;;;;;;5014974;28;20389;-71
2022/09/03 07:50:03;;;;;;;4.80;2.13;;;20.70;13.10;;;;;;5014862;28;20400;-71
2022/09/03 07:52:29;;;;;;;4.13;2.00;;;20.70;13.10;;;;;;5015071;28;20476;-71
2022/09/03 07:54:54;;;;;;;4.33;2.30;;;20.80;12.80;;;;;;5018933;28;20435;-73
2022/09/03 07:57:20;;;;;;;3.90;2.20;;;21.00;12.70;;;;;;5021824;28;20785;-72
2022/09/03 07:59:45;;;;;;;4.60;2.78;;;21.10;12.70;;;;;;5014634;28;20765;-71
2022/09/03 08:02:11;;;;;;;4.90;2.40;;;21.20;12.40;;;;;;5013031;28;20401;-70
2022/09/03 08:04:37;;;;;;;3.47;2.28;;;21.30;12.30;;;;;;5014295;28;20385;-70
2022/09/03 08:07:03;;;;;;;8.05;2.53;;;21.30;12.10;;;;;;5014444;28;20892;-71
2022/09/03 08:09:28;;;;;;;3.30;2.00;;;21.40;12.20;;;;;;5013134;28;20389;-72
2022/09/03 08:11:54;;;;;;;5.90;2.80;;;21.40;12.20;;;;;;5013519;28;20778;-72
2022/09/03 08:14:20;;;;;;;3.73;2.07;;;21.40;12.60;;;;;;5013018;28;20407;-72
2022/09/03 08:16:49;;;;;;;3.38;2.22;;;21.50;12.20;;;;;;5013706;28;20762;-71
2022/09/03 08:19:17;;;;;;;5.50;2.20;;;21.60;11.80;;;;;;5014215;28;20900;-70
2022/09/03 08:21:43;;;;;;;5.07;2.35;;;21.60;12.00;;;;;;5013926;28;20385;-72
2022/09/03 08:24:14;;;;;;;2.95;1.90;;;21.80;11.90;;;;;;5014092;28;20392;-70
2022/09/03 08:26:41;;;;;;;5.80;2.28;;;21.70;11.70;;;;;;5012421;28;20396;-71
2022/09/03 08:29:07;;;;;;;4.93;2.05;;;21.80;11.70;;;;;;5013348;28;20459;-70
2022/09/03 08:31:35;;;;;;;6.40;2.33;;;21.80;11.60;;;;;;5012383;28;20446;-71
2022/09/03 08:34:03;;;;;;;3.03;2.75;;;21.80;11.70;;;;;;5013204;28;20411;-70
2022/09/03 08:36:30;;;;;;;4.30;2.10;;;21.80;11.80;;;;;;5012081;28;20817;-72
2022/09/03 08:39:02;;;;;;;5.07;2.47;;;21.90;11.60;;;;;;5013166;28;20475;-72
2022/09/03 08:41:37;;;;;;;7.32;2.80;;;22.00;11.60;;;;;;5013152;28;20462;-72
2022/09/03 08:44:24;;;;;;;7.72;2.00;;;22.10;11.60;;;;;;5012977;28;20401;-72
2022/09/03 08:46:50;;;;;;;4.55;2.13;;;22.10;11.20;;;;;;5012122;28;20396;-73
2022/09/03 08:49:26;;;;;;;3.17;2.45;;;22.10;11.10;;;;;;5012858;28;20727;-72
2022/09/03 08:51:55;;;;;;;3.43;2.10;;;22.00;11.30;;;;;;5012838;28;20480;-72
2022/09/03 08:54:25;;;;;;;91.68;58.47;;;21.90;11.70;;;;;;5012633;28;20425;-72
2022/09/03 08:56:53;;;;;;;22.00;14.73;;;22.00;11.70;;;;;;5012233;28;20407;-72
2022/09/03 08:59:20;;;;;;;6.15;2.50;;;21.90;11.70;;;;;;5012313;28;20778;-72
2022/09/03 09:02:01;;;;;;;7.95;5.85;;;21.80;12.00;;;;;;5010661;28;20758;-73
2022/09/03 09:04:52;;;;;;;4.88;2.45;;;21.70;12.10;;;;;;5012226;28;20392;-72
2022/09/03 09:07:30;;;;;;;8.52;5.88;;;21.80;12.00;;;;;;5012479;28;20472;-73
2022/09/03 09:10:14;;;;;;;9.00;4.10;;;21.80;12.30;;;;;;5012200;28;20427;-72
2022/09/03 09:13:25;;;;;;;4.80;3.30;;;21.80;12.20;;;;;;5011414;28;20389;-74
2022/09/03 09:16:09;;;;;;;10.23;7.40;;;21.80;12.40;;;;;;5009546;28;20471;-73
2022/09/03 09:18:53;;;;;;;6.38;3.33;;;21.80;12.50;;;;;;5012651;28;20388;-72
2022/09/03 09:21:32;;;;;;;8.30;6.70;;;22.00;12.30;;;;;;5013717;28;20408;-72
2022/09/03 09:24:03;;;;;;;8.60;5.32;;;22.00;12.20;;;;;;5016646;28;20411;-72
2022/09/03 09:26:29;;;;;;;3.78;2.40;;;22.30;12.40;;;;;;5017272;28;20428;-73
2022/09/03 09:29:02;;;;;;;4.47;3.40;;;22.60;11.70;;;;;;5013432;28;20443;-73
2022/09/03 09:31:30;;;;;;;3.95;3.17;;;22.80;11.30;;;;;;5025200;28;20435;-72
2022/09/03 09:34:06;;;;;;;4.40;3.72;;;23.10;11.00;;;;;;5025887;28;20380;-72
2022/09/03 09:36:47;;;;;;;2.15;1.83;;;23.50;10.50;;;;;;5026636;28;20401;-73
2022/09/03 09:39:16;;;;;;;6.97;2.70;;;23.70;10.10;;;;;;5026249;28;20452;-73
2022/09/03 09:41:45;;;;;;;4.10;2.00;;;23.70;9.90;;;;;;5022255;28;20912;-71
2022/09/03 09:44:19;;;;;;;6.80;2.10;;;23.70;9.70;;;;;;5035881;23;20530;-72
2022/09/03 09:46:45;;;;;;;3.53;2.03;;;23.60;10.00;;;;;;5031122;28;20383;-73
2022/09/03 09:49:30;;;;;;;8.37;2.17;;;23.60;9.90;;;;;;5030610;28;20739;-74
2022/09/03 09:52:10;;;;;;;4.15;2.20;;;23.50;10.00;;;;;;5030538;28;20450;-72
2022/09/03 09:54:38;;;;;;;4.40;2.28;;;23.40;10.30;;;;;;5030842;28;20398;-70
2022/09/03 09:57:07;;;;;;;6.33;2.57;;;23.30;10.60;;;;;;5030906;28;20480;-73
2022/09/03 09:59:34;;;;;;;7.72;3.75;;;23.20;11.00;;;;;;5030832;28;20855;-72
2022/09/03 10:02:12;;;;;;;8.07;4.20;;;23.30;11.60;;;;;;5029088;28;20490;-73
2022/09/03 10:04:39;;;;;;;7.60;3.20;;;23.40;11.90;;;;;;5030935;28;20748;-73
2022/09/03 10:07:18;;;;;;;3.20;2.38;;;23.50;11.70;;;;;;5029384;28;20398;-72
2022/09/03 10:09:44;;;;;;;4.65;2.80;;;23.60;11.80;;;;;;5030768;28;20397;-72
2022/09/03 10:12:18;;;;;;;5.53;3.40;;;23.60;11.80;;;;;;5030576;28;20478;-74
2022/09/03 10:14:56;;;;;;;3.10;2.80;;;23.60;12.00;;;;;;5030520;28;20383;-72
2022/09/03 10:17:54;;;;;;;5.85;2.90;;;23.60;12.10;;;;;;5030789;28;20459;-71
2022/09/03 10:20:37;;;;;;;3.60;2.15;;;23.70;12.30;;;;;;5029596;28;20724;-72
2022/09/03 10:23:17;;;;;;;3.35;2.40;;;23.80;11.90;;;;;;5031569;28;20379;-71
2022/09/03 10:25:55;;;;;;;2.55;2.35;;;23.70;12.40;;;;;;5034712;28;20451;-71
2022/09/03 10:28:25;;;;;;;5.80;2.60;;;23.50;13.00;;;;;;5034451;28;20379;-73
2022/09/03 10:31:31;;;;;;;3.70;2.50;;;23.30;13.40;;;;;;5034659;28;20744;-73
2022/09/03 10:34:05;;;;;;;6.13;2.40;;;23.20;13.50;;;;;;5034776;28;20482;-72
2022/09/03 10:36:39;;;;;;;2.95;2.55;;;23.20;13.50;;;;;;5033312;28;20914;-74
2022/09/03 10:39:19;;;;;;;3.72;2.47;;;23.00;13.70;;;;;;5034809;28;20391;-73
2022/09/03 10:42:05;;;;;;;5.70;2.92;;;22.90;13.90;;;;;;5034183;28;20421;-73
2022/09/03 10:44:51;;;;;;;4.65;2.70;;;22.90;14.30;;;;;;5034298;28;20902;-72
2022/09/03 10:47:34;;;;;;;4.82;2.70;;;22.90;14.60;;;;;;5033674;28;20739;-73
2022/09/03 10:50:19;;;;;;;8.52;3.38;;;23.00;14.70;;;;;;5034366;28;20389;-73
2022/09/03 10:53:09;;;;;;;3.70;3.20;;;23.20;14.30;;;;;;5033983;28;20383;-72
2022/09/03 10:55:40;;;;;;;4.63;2.95;;;23.40;14.50;;;;;;5034251;28;20470;-72
2022/09/03 10:58:27;;;;;;;3.58;2.67;;;23.50;14.00;;;;;;5034098;28;20379;-73
2022/09/03 11:01:02;;;;;;;6.07;3.40;;;23.70;14.00;;;;;;5034091;28;20820;-72
2022/09/03 11:03:41;;;;;;;5.90;3.25;;;23.80;14.00;;;;;;5034132;28;20888;-77
2022/09/03 11:06:18;;;;;;;6.47;3.10;;;23.80;14.10;;;;;;5031980;28;20390;-73
2022/09/03 11:09:06;;;;;;;5.07;3.60;;;23.80;14.30;;;;;;5033971;28;20384;-74
2022/09/03 11:12:00;;;;;;;3.28;2.67;;;23.70;14.60;;;;;;5033800;28;20895;-73
2022/09/03 11:14:41;;;;;;;4.78;4.10;;;23.80;14.60;;;;;;5030984;28;20825;-74
2022/09/03 11:17:23;;;;;;;3.85;2.83;;;24.00;14.70;;;;;;5030790;28;20405;-74
2022/09/03 11:20:15;;;;;;;3.80;2.80;;;24.10;14.60;;;;;;5031099;28;20411;-73
2022/09/03 11:22:44;;;;;;;3.80;2.80;;;24.20;13.90;;;;;;5031678;28;20457;-73
2022/09/03 11:25:13;;;;;;;5.27;4.47;;;24.20;13.60;;;;;;5031506;28;20399;-74
2022/09/03 11:27:41;;;;;;;6.17;3.47;;;24.10;13.60;;;;;;5029272;28;20963;-74
2022/09/03 11:30:13;;;;;;;5.10;4.43;;;23.90;13.70;;;;;;5032404;28;20394;-73
2022/09/03 11:33:05;;;;;;;8.13;4.28;;;23.80;13.70;;;;;;5032766;28;20413;-72
2022/09/03 11:35:30;;;;;;;3.47;2.70;;;23.70;14.00;;;;;;5032712;28;20929;-73
2022/09/03 11:38:07;;;;;;;4.10;3.20;;;23.60;14.80;;;;;;5032762;28;20399;-74
2022/09/03 11:40:37;;;;;;;5.13;4.43;;;23.60;14.80;;;;;;5024220;28;20419;-72
2022/09/03 11:43:07;;;;;;;5.43;4.00;;;23.50;15.10;;;;;;5032425;28;20427;-72
2022/09/03 11:45:36;;;;;;;7.10;3.70;;;23.40;15.20;;;;;;5032002;28;20453;-74
2022/09/03 11:48:15;;;;;;;6.97;5.28;;;23.50;15.20;;;;;;5032262;28;20474;-73
2022/09/03 11:50:52;;;;;;;5.38;3.00;;;23.40;15.00;;;;;;5033084;28;20635;-73
2022/09/03 11:53:17;;;;;;;5.50;3.50;;;23.60;14.40;;;;;;5032685;28;20398;-73
2022/09/03 11:55:59;;;;;;;4.93;3.60;;;23.60;14.50;;;;;;5033035;28;20744;-73
2022/09/03 11:58:35;;;;;;;5.85;3.70;;;23.80;14.30;;;;;;5032742;28;20386;-73
2022/09/03 12:01:10;;;;;;;4.63;3.10;;;23.90;13.90;;;;;;5033212;28;20489;-74
2022/09/03 12:03:42;;;;;;;11.38;8.00;;;24.00;13.80;;;;;;5033213;28;20390;-73
2022/09/03 12:06:18;;;;;;;6.28;4.80;;;24.10;13.70;;;;;;5032836;28;20748;-72
2022/09/03 12:09:01;;;;;;;6.72;3.78;;;24.10;13.70;;;;;;5033007;28;20488;-72
2022/09/03 12:11:40;;;;;;;7.30;3.65;;;24.30;13.40;;;;;;5033788;28;20463;-72
2022/09/03 12:14:21;;;;;;;3.95;3.55;;;24.50;13.20;;;;;;5035852;28;20390;-73
2022/09/03 12:16:52;;;;;;;4.07;3.20;;;24.70;12.90;;;;;;5034379;28;20387;-73
2022/09/03 12:19:40;;;;;;;4.60;3.17;;;24.80;12.30;;;;;;5033689;28;20382;-74
2022/09/03 12:22:06;;;;;;;5.25;3.20;;;24.80;12.20;;;;;;5032982;28;20449;-73
2022/09/03 12:24:34;;;;;;;5.20;4.00;;;24.80;12.30;;;;;;5033092;28;20907;-72
2022/09/03 12:27:01;;;;;;;5.60;3.03;;;24.90;12.40;;;;;;5047786;28;20740;-73
2022/09/03 12:29:29;;;;;;;3.60;3.15;;;25.10;12.00;;;;;;5032708;28;20398;-73
2022/09/03 12:32:04;;;;;;;3.70;3.40;;;25.30;12.00;;;;;;5032747;28;20406;-73
2022/09/03 12:34:31;;;;;;;7.13;3.60;;;25.70;11.40;;;;;;5032794;28;20418;-73
2022/09/03 12:36:57;;;;;;;6.68;4.00;;;26.00;11.20;;;;;;5032683;28;20755;-72
2022/09/03 12:39:25;;;;;;;7.53;3.78;;;26.40;10.70;;;;;;5032323;28;20391;-74
2022/09/03 12:42:03;;;;;;;4.97;4.38;;;26.60;10.30;;;;;;5032207;28;20387;-74
2022/09/03 12:44:38;;;;;;;4.25;3.30;;;26.90;9.90;;;;;;5032128;28;20403;-74
2022/09/03 12:47:12;;;;;;;4.55;3.67;;;27.20;10.00;;;;;;5031382;28;20376;-73
2022/09/03 12:49:40;;;;;;;4.45;3.60;;;27.30;9.80;;;;;;5032041;28;20867;-73
2022/09/03 12:52:43;;;;;;;6.65;3.50;;;27.50;9.60;;;;;;5031300;28;20490;-75
2022/09/03 12:55:30;;;;;;;3.58;3.10;;;27.50;9.40;;;;;;5019621;28;20391;-73
2022/09/03 12:58:03;;;;;;;5.78;3.97;;;27.70;9.10;;;;;;5031729;28;20481;-72
2022/09/03 13:00:32;;;;;;;4.65;3.10;;;27.50;9.50;;;;;;5031858;28;20812;-73
2022/09/03 13:03:15;;;;;;;6.28;3.60;;;27.50;9.60;;;;;;5032020;28;20454;-73
2022/09/03 13:05:49;;;;;;;4.15;3.05;;;27.70;9.30;;;;;;5031704;28;20394;-73
2022/09/03 13:08:39;;;;;;;15.35;3.63;;;27.90;9.00;;;;;;5031410;28;20848;-73
2022/09/03 13:11:05;;;;;;;6.72;3.63;;;28.10;9.00;;;;;;5030958;28;20482;-73
2022/09/03 13:13:35;;;;;;;5.35;3.95;;;28.30;8.70;;;;;;5031464;28;20435;-73
2022/09/03 13:16:23;;;;;;;5.23;3.20;;;28.40;8.20;;;;;;5031410;28;20911;-73
2022/09/03 13:18:56;;;;;;;9.50;3.88;;;28.50;8.30;;;;;;5031588;28;20386;-73